createdAt,value
2022-11-20T00:01:18.958Z,8.43
2022-11-20T00:03:45.766Z,8.43
2022-11-20T00:06:15.106Z,8.35
2022-11-20T00:08:41.819Z,8.42
2022-11-20T00:11:15.485Z,8.40
2022-11-20T00:13:47.921Z,8.43
2022-11-20T00:16:17.030Z,8.45
2022-11-20T00:18:44.771Z,8.59
2022-11-20T00:21:16.420Z,8.52
2022-11-20T00:23:43.000Z,8.54
2022-11-20T00:26:15.178Z,8.34
2022-11-20T00:28:42.600Z,8.38
2022-11-20T00:31:14.766Z,8.33
2022-11-20T00:33:42.923Z,8.30
2022-11-20T00:36:10.512Z,8.38
2022-11-20T00:38:37.311Z,8.37
2022-11-20T00:41:08.818Z,8.45
2022-11-20T00:43:36.530Z,8.53
2022-11-20T00:46:11.499Z,8.50
2022-11-20T00:48:38.075Z,8.39
2022-11-20T00:51:05.308Z,8.35
2022-11-20T00:53:32.323Z,8.31
2022-11-20T00:56:06.642Z,8.39
2022-11-20T00:58:38.214Z,8.34
2022-11-20T01:01:19.384Z,8.44
2022-11-20T01:03:48.343Z,8.40
2022-11-20T01:06:35.592Z,8.38
2022-11-20T01:09:14.362Z,8.51
2022-11-20T01:11:43.611Z,8.31
2022-11-20T01:14:15.280Z,8.36
2022-11-20T01:16:44.561Z,8.20
2022-11-20T01:19:17.652Z,8.12
2022-11-20T01:21:46.199Z,8.13
2022-11-20T01:24:15.315Z,8.09
2022-11-20T01:26:43.442Z,8.10
2022-11-20T01:29:17.667Z,8.19
2022-11-20T01:31:44.923Z,8.08
2022-11-20T01:34:13.481Z,8.17
2022-11-20T01:36:40.434Z,8.24
2022-11-20T01:39:15.333Z,8.27
2022-11-20T01:42:03.484Z,8.33
2022-11-20T01:45:01.836Z,8.34
2022-11-20T01:47:37.031Z,8.22
2022-11-20T01:50:26.408Z,8.39
2022-11-20T01:52:58.911Z,8.20
2022-11-20T01:55:38.431Z,8.31
2022-11-20T01:58:05.580Z,8.32
2022-11-20T02:00:32.833Z,8.14
2022-11-20T02:03:01.770Z,8.18
2022-11-20T02:05:33.759Z,8.00
2022-11-20T02:08:00.944Z,8.13
2022-11-20T02:10:28.351Z,7.98
2022-11-20T02:13:13.626Z,8.23
2022-11-20T02:15:40.980Z,8.29
2022-11-20T02:18:07.964Z,8.31
2022-11-20T02:20:34.559Z,8.32
2022-11-20T02:23:13.290Z,8.45
2022-11-20T02:25:40.440Z,8.42
2022-11-20T02:28:07.981Z,8.47
2022-11-20T02:30:34.504Z,8.36
2022-11-20T02:33:01.035Z,8.42
2022-11-20T02:35:27.473Z,8.35
2022-11-20T02:37:56.004Z,8.40
2022-11-20T02:40:22.862Z,8.34
2022-11-20T02:42:53.376Z,8.34
2022-11-20T02:45:20.034Z,8.32
2022-11-20T02:47:46.522Z,8.42
2022-11-20T02:50:13.485Z,8.41
2022-11-20T02:52:40.069Z,8.60
2022-11-20T02:55:07.276Z,8.52
2022-11-20T02:57:33.781Z,8.69
2022-11-20T03:00:00.384Z,8.65
2022-11-20T03:02:27.238Z,8.59
2022-11-20T03:04:53.827Z,8.51
2022-11-20T03:07:20.410Z,8.42
2022-11-20T03:09:46.981Z,8.60
2022-11-20T03:12:13.491Z,8.66
2022-11-20T03:14:40.090Z,8.81
2022-11-20T03:17:06.788Z,8.80
2022-11-20T03:19:35.235Z,8.86
2022-11-20T03:22:02.105Z,8.86
2022-11-20T03:24:28.719Z,8.80
2022-11-20T03:26:55.442Z,8.66
2022-11-20T03:29:22.194Z,8.85
2022-11-20T03:31:48.893Z,8.88
2022-11-20T03:34:15.493Z,8.89
2022-11-20T03:36:43.033Z,8.89
2022-11-20T03:39:09.811Z,8.67
2022-11-20T03:41:38.384Z,8.80
2022-11-20T03:44:07.062Z,8.60
2022-11-20T03:46:33.903Z,8.64
2022-11-20T03:49:00.547Z,8.59
2022-11-20T03:51:29.424Z,8.63
2022-11-20T03:53:58.950Z,8.60
2022-11-20T03:56:37.523Z,8.55
2022-11-20T03:59:04.674Z,8.58
2022-11-20T04:01:33.798Z,8.66
2022-11-20T04:04:00.687Z,8.69
2022-11-20T04:06:29.547Z,8.71
2022-11-20T04:08:57.436Z,8.59
2022-11-20T04:11:28.723Z,8.57
2022-11-20T04:13:57.472Z,8.28
2022-11-20T04:16:25.656Z,8.26
2022-11-20T04:18:54.166Z,8.04
2022-11-20T04:21:21.504Z,8.22
2022-11-20T04:23:48.111Z,8.29
2022-11-20T04:26:14.697Z,8.04
2022-11-20T04:28:41.453Z,8.12
2022-11-20T04:31:18.309Z,8.16
2022-11-20T04:33:45.495Z,8.05
2022-11-20T04:36:17.012Z,7.97
2022-11-20T04:38:43.727Z,7.94
2022-11-20T04:41:18.249Z,8.08
2022-11-20T04:43:49.413Z,8.09
2022-11-20T04:46:17.108Z,8.23
2022-11-20T04:48:43.680Z,8.26
2022-11-20T04:51:10.234Z,8.41
2022-11-20T04:53:37.459Z,8.24
2022-11-20T04:56:08.430Z,8.42
2022-11-20T04:58:35.285Z,8.42
2022-11-20T05:01:06.784Z,8.52
2022-11-20T05:03:37.306Z,8.37
2022-11-20T05:06:07.032Z,8.61
2022-11-20T05:08:34.049Z,8.65
2022-11-20T05:11:09.148Z,8.66
2022-11-20T05:13:35.844Z,8.61
2022-11-20T05:16:11.629Z,8.59
2022-11-20T05:18:39.467Z,8.56
2022-11-20T05:21:06.593Z,8.63
2022-11-20T05:23:33.506Z,8.77
2022-11-20T05:26:00.423Z,8.67
2022-11-20T05:28:28.433Z,8.78
2022-11-20T05:30:55.100Z,8.78
2022-11-20T05:33:22.101Z,8.70
2022-11-20T05:35:49.609Z,8.74
2022-11-20T05:38:16.610Z,8.81
2022-11-20T05:40:43.455Z,8.86
2022-11-20T05:43:09.975Z,8.86
2022-11-20T05:45:36.635Z,8.85
2022-11-20T05:48:03.402Z,8.89
2022-11-20T05:50:29.927Z,8.85
2022-11-20T05:53:00.313Z,8.86
2022-11-20T05:55:27.586Z,8.94
2022-11-20T05:57:55.775Z,8.84
2022-11-20T06:00:22.308Z,8.82
2022-11-20T06:02:48.926Z,8.81
2022-11-20T06:05:15.548Z,8.69
2022-11-20T06:07:42.280Z,8.77
2022-11-20T06:10:09.189Z,8.71
2022-11-20T06:12:35.786Z,8.64
2022-11-20T06:15:02.374Z,8.65
2022-11-20T06:17:28.936Z,8.54
2022-11-20T06:19:55.490Z,8.41
2022-11-20T06:22:22.037Z,8.49
2022-11-20T06:24:49.128Z,8.51
2022-11-20T06:27:15.672Z,8.44
2022-11-20T06:29:42.283Z,8.45
2022-11-20T06:32:08.904Z,8.57
2022-11-20T06:34:35.424Z,8.51
2022-11-20T06:37:02.481Z,8.58
2022-11-20T06:39:29.016Z,8.63
2022-11-20T06:41:58.715Z,8.55
2022-11-20T06:44:25.681Z,8.53
2022-11-20T06:46:52.307Z,8.66
2022-11-20T06:49:19.027Z,8.67
2022-11-20T06:51:46.387Z,8.81
2022-11-20T06:54:12.948Z,8.83
2022-11-20T06:56:39.615Z,8.78
2022-11-20T06:59:07.023Z,8.72
2022-11-20T07:01:34.163Z,8.78
2022-11-20T07:04:00.714Z,8.75
2022-11-20T07:06:27.208Z,8.62
2022-11-20T07:08:53.937Z,8.73
2022-11-20T07:11:20.611Z,8.66
2022-11-20T07:13:47.296Z,8.62
2022-11-20T07:16:13.865Z,8.50
2022-11-20T07:18:40.456Z,8.54
2022-11-20T07:21:09.791Z,8.61
2022-11-20T07:23:37.622Z,8.64
2022-11-20T07:26:08.810Z,8.71
2022-11-20T07:28:36.247Z,8.79
2022-11-20T07:31:03.042Z,8.90
2022-11-20T07:33:29.884Z,8.94
2022-11-20T07:35:56.491Z,8.98
2022-11-20T07:38:23.108Z,8.99
2022-11-20T07:40:49.950Z,9.15
2022-11-20T07:43:16.716Z,9.10
2022-11-20T07:45:44.300Z,9.08
2022-11-20T07:48:10.891Z,8.63
2022-11-20T07:50:37.863Z,9.01
2022-11-20T07:53:05.805Z,9.19
2022-11-20T07:55:33.021Z,9.16
2022-11-20T07:57:59.886Z,9.26
2022-11-20T08:00:27.583Z,8.99
2022-11-20T08:02:54.634Z,9.09
2022-11-20T08:05:21.395Z,8.99
2022-11-20T08:07:48.232Z,9.13
2022-11-20T08:10:16.934Z,9.04
2022-11-20T08:13:07.619Z,9.12
2022-11-20T08:15:34.842Z,8.70
2022-11-20T08:20:56.347Z,9.09
2022-11-20T08:23:23.734Z,8.97
2022-11-20T08:25:51.012Z,9.07
2022-11-20T08:28:21.377Z,9.07
2022-11-20T08:30:49.199Z,9.16
2022-11-20T08:33:16.036Z,9.21
2022-11-20T08:35:44.018Z,9.37
2022-11-20T08:38:10.562Z,9.49
2022-11-20T08:40:37.404Z,9.31
2022-11-20T08:43:04.069Z,9.52
2022-11-20T08:45:34.037Z,9.61
2022-11-20T08:48:03.434Z,9.66
2022-11-20T08:50:32.986Z,9.37
2022-11-20T08:53:04.724Z,9.51
2022-11-20T08:55:31.459Z,9.46
2022-11-20T08:57:57.954Z,9.41
2022-11-20T09:00:24.768Z,9.49
2022-11-20T09:02:51.351Z,9.29
2022-11-20T09:05:17.882Z,9.46
2022-11-20T09:07:44.481Z,9.49
2022-11-20T09:10:28.426Z,9.38
2022-11-20T09:13:01.514Z,9.12
2022-11-20T09:15:28.296Z,9.32
2022-11-20T09:17:57.833Z,9.26
2022-11-20T09:20:24.720Z,8.85
2022-11-20T09:22:51.472Z,8.15
2022-11-20T09:25:20.582Z,8.37
2022-11-20T09:27:47.957Z,8.06
2022-11-20T09:30:17.532Z,8.25
2022-11-20T09:32:44.215Z,8.44
2022-11-20T09:35:11.577Z,7.81
2022-11-20T09:37:38.453Z,8.28
2022-11-20T09:40:09.245Z,8.33
2022-11-20T09:42:44.697Z,8.55
2022-11-20T09:45:23.398Z,8.64
2022-11-20T09:47:53.047Z,8.22
2022-11-20T09:50:37.747Z,8.43
2022-11-20T09:53:50.155Z,8.18
2022-11-20T09:56:18.325Z,8.11
2022-11-20T09:58:52.928Z,8.06
2022-11-20T10:01:22.805Z,8.30
2022-11-20T10:03:58.989Z,8.25
2022-11-20T10:06:32.542Z,8.52
2022-11-20T10:09:14.536Z,8.67
2022-11-20T10:12:07.496Z,8.25
2022-11-20T10:14:47.966Z,8.57
2022-11-20T10:17:38.880Z,8.48
2022-11-20T10:20:12.549Z,8.43
2022-11-20T10:22:45.191Z,8.49
2022-11-20T10:25:17.206Z,8.99
2022-11-20T10:28:11.624Z,8.91
2022-11-20T10:30:42.737Z,8.33
2022-11-20T10:33:24.985Z,8.26
2022-11-20T10:36:09.615Z,8.41
2022-11-20T10:38:47.104Z,8.67
2022-11-20T10:41:27.248Z,8.25
2022-11-20T10:44:02.830Z,8.03
2022-11-20T10:46:38.452Z,8.56
2022-11-20T10:49:12.110Z,8.28
2022-11-20T10:51:44.543Z,8.14
2022-11-20T10:54:19.387Z,8.35
2022-11-20T10:56:51.695Z,8.34
2022-11-20T10:59:45.404Z,7.81
2022-11-20T11:02:23.593Z,8.10
2022-11-20T11:04:52.411Z,8.36
2022-11-20T11:07:29.018Z,7.83
2022-11-20T11:09:56.880Z,7.71
2022-11-20T11:12:25.538Z,7.95
2022-11-20T11:14:54.391Z,8.58
2022-11-20T11:17:24.082Z,8.20
2022-11-20T11:20:00.479Z,8.23
2022-11-20T11:22:30.650Z,8.60
2022-11-20T11:24:57.258Z,8.91
2022-11-20T11:27:23.900Z,9.03
2022-11-20T11:29:50.465Z,9.20
2022-11-20T11:32:21.506Z,9.33
2022-11-20T11:35:06.023Z,9.32
2022-11-20T11:37:38.161Z,9.43
2022-11-20T11:43:00.121Z,9.46
2022-11-20T11:45:26.824Z,9.40
2022-11-20T11:47:56.826Z,9.61
2022-11-20T11:50:25.559Z,9.49
2022-11-20T11:52:58.125Z,9.51
2022-11-20T11:56:01.499Z,8.99
2022-11-20T11:58:48.318Z,9.06
2022-11-20T12:01:35.129Z,9.58
2022-11-20T12:04:12.162Z,9.49
2022-11-20T12:06:40.207Z,9.44
2022-11-20T12:09:09.320Z,9.86
2022-11-20T12:11:55.446Z,9.68
2022-11-20T12:14:38.713Z,9.93
2022-11-20T12:17:05.723Z,9.80
2022-11-20T12:19:34.510Z,9.89
2022-11-20T12:22:20.112Z,9.56
2022-11-20T12:24:56.530Z,9.46
2022-11-20T12:27:48.840Z,9.12
2022-11-20T12:30:17.077Z,9.29
2022-11-20T12:33:22.270Z,9.57
2022-11-20T12:36:00.954Z,9.36
2022-11-20T12:38:36.703Z,9.88
2022-11-20T12:41:43.915Z,9.94
2022-11-20T12:44:53.924Z,10.41
2022-11-20T12:47:51.347Z,9.58
2022-11-20T12:51:00.177Z,9.57
2022-11-20T12:53:40.749Z,9.50
2022-11-20T12:56:27.093Z,10.01
2022-11-20T12:59:20.110Z,9.97
2022-11-20T13:02:25.893Z,9.55
2022-11-20T13:05:05.811Z,9.25
2022-11-20T13:07:34.139Z,8.98
2022-11-20T13:10:01.663Z,8.95
2022-11-20T13:12:33.388Z,8.50
2022-11-20T13:15:30.923Z,8.76
2022-11-20T13:18:02.197Z,8.63
2022-11-20T13:20:29.115Z,8.68
2022-11-20T13:22:58.101Z,8.83
2022-11-20T13:25:27.415Z,8.79
2022-11-20T13:27:55.101Z,9.34
2022-11-20T13:30:26.372Z,9.39
2022-11-20T13:32:57.014Z,8.99
2022-11-20T13:35:34.941Z,8.96
2022-11-20T13:38:13.271Z,8.87
2022-11-20T13:40:52.785Z,8.98
2022-11-20T13:43:34.675Z,9.88
2022-11-20T13:46:03.655Z,8.91
2022-11-20T13:48:35.036Z,9.47
2022-11-20T13:51:04.795Z,10.13
2022-11-20T13:54:25.156Z,9.49
2022-11-20T13:57:18.823Z,9.65
2022-11-20T13:59:54.276Z,9.63
2022-11-20T14:02:22.222Z,9.77
2022-11-20T14:04:58.206Z,9.58
2022-11-20T14:07:28.545Z,9.24
2022-11-20T14:09:57.501Z,9.18
2022-11-20T14:12:34.575Z,8.94
2022-11-20T14:15:01.951Z,9.20
2022-11-20T14:17:36.438Z,9.25
2022-11-20T14:20:05.732Z,9.15
2022-11-20T14:22:32.337Z,8.83
2022-11-20T14:25:03.545Z,8.77
2022-11-20T14:27:30.223Z,8.50
2022-11-20T14:29:56.800Z,8.43
2022-11-20T14:32:27.378Z,8.74
2022-11-20T14:34:58.003Z,8.51
2022-11-20T14:37:25.845Z,8.87
2022-11-20T14:39:56.727Z,8.60
2022-11-20T14:42:25.785Z,8.51
2022-11-20T14:44:55.447Z,8.83
2022-11-20T14:47:30.411Z,9.28
2022-11-20T14:49:58.284Z,9.36
2022-11-20T14:52:26.691Z,9.26
2022-11-20T14:55:03.154Z,9.28
2022-11-20T14:57:32.201Z,9.07
2022-11-20T15:00:08.601Z,9.10
2022-11-20T15:02:35.568Z,9.31
2022-11-20T15:05:05.858Z,9.25
2022-11-20T15:07:35.223Z,9.23
2022-11-20T15:10:10.240Z,9.11
2022-11-20T15:12:50.429Z,9.17
2022-11-20T15:15:22.153Z,8.97
2022-11-20T15:17:48.780Z,9.19
2022-11-20T15:20:17.235Z,9.28
2022-11-20T15:22:43.845Z,9.30
2022-11-20T15:25:18.365Z,9.22
2022-11-20T15:27:45.162Z,9.24
2022-11-20T15:30:17.934Z,9.18
2022-11-20T15:32:45.083Z,9.07
2022-11-20T15:35:11.930Z,9.18
2022-11-20T15:37:39.198Z,8.99
2022-11-20T15:40:06.840Z,9.12
2022-11-20T15:42:33.801Z,9.15
2022-11-20T15:45:01.062Z,9.16
2022-11-20T15:47:32.643Z,9.10
2022-11-20T15:49:59.602Z,9.07
2022-11-20T15:52:26.285Z,8.92
2022-11-20T15:54:52.861Z,8.90
2022-11-20T15:57:19.952Z,8.89
2022-11-20T15:59:46.473Z,8.70
2022-11-20T16:02:18.690Z,8.82
2022-11-20T16:04:45.769Z,8.81
2022-11-20T16:07:14.389Z,8.90
2022-11-20T16:09:41.172Z,8.90
2022-11-20T16:12:30.364Z,8.87
2022-11-20T16:15:15.382Z,8.77
2022-11-20T16:17:44.849Z,8.83
2022-11-20T16:20:14.468Z,8.80
2022-11-20T16:22:41.049Z,8.83
2022-11-20T16:25:07.967Z,8.76
2022-11-20T16:27:34.508Z,8.80
2022-11-20T16:30:01.139Z,8.82
2022-11-20T16:32:28.053Z,8.62
2022-11-20T16:34:54.983Z,8.51
2022-11-20T16:37:21.595Z,8.43
2022-11-20T16:39:48.371Z,8.38
2022-11-20T16:42:15.810Z,8.45
2022-11-20T16:44:42.749Z,8.59
2022-11-20T16:47:09.334Z,8.60
2022-11-20T16:49:35.884Z,8.66
2022-11-20T16:52:02.495Z,8.85
2022-11-20T16:54:29.043Z,8.99
2022-11-20T16:56:55.682Z,8.89
2022-11-20T16:59:22.233Z,8.99
2022-11-20T17:01:48.841Z,8.89
2022-11-20T17:04:15.657Z,8.91
2022-11-20T17:06:48.064Z,8.88
2022-11-20T17:09:18.636Z,8.83
2022-11-20T17:11:45.147Z,8.81
2022-11-20T17:14:12.435Z,8.73
2022-11-20T17:16:39.199Z,8.66
2022-11-20T17:19:05.946Z,8.81
2022-11-20T17:21:33.764Z,8.77
2022-11-20T17:24:04.794Z,8.84
2022-11-20T17:26:31.689Z,8.82
2022-11-20T17:29:02.288Z,9.01
2022-11-20T17:31:30.586Z,8.91
2022-11-20T17:34:00.280Z,9.02
2022-11-20T17:36:27.468Z,8.86
2022-11-20T17:38:54.458Z,8.91
2022-11-20T17:41:22.929Z,8.76
2022-11-20T17:43:50.415Z,8.79
2022-11-20T17:46:19.306Z,8.85
2022-11-20T17:48:47.479Z,8.76
2022-11-20T17:51:15.475Z,8.78
2022-11-20T17:53:44.203Z,8.89
2022-11-20T17:56:29.866Z,8.81
2022-11-20T17:58:57.385Z,8.87
2022-11-20T18:01:24.105Z,8.83
2022-11-20T18:03:50.967Z,8.62
2022-11-20T18:06:19.663Z,8.80
2022-11-20T18:08:47.501Z,8.83
2022-11-20T18:11:21.423Z,8.72
2022-11-20T18:14:11.423Z,8.61
2022-11-20T18:17:05.272Z,8.72
2022-11-20T18:19:42.601Z,8.77
2022-11-20T18:22:15.972Z,8.81
2022-11-20T18:24:43.669Z,8.73
2022-11-20T18:27:16.150Z,8.82
2022-11-20T18:29:43.436Z,8.92
2022-11-20T18:32:09.974Z,8.90
2022-11-20T18:34:36.558Z,8.98
2022-11-20T18:37:03.129Z,9.02
2022-11-20T18:39:29.770Z,9.13
2022-11-20T18:42:14.851Z,9.05
2022-11-20T18:44:51.382Z,8.60
2022-11-20T18:47:40.089Z,8.77
2022-11-20T18:50:08.425Z,8.45
2022-11-20T18:52:39.816Z,8.47
2022-11-20T18:55:07.339Z,8.67
2022-11-20T18:57:33.937Z,8.48
2022-11-20T19:00:05.084Z,8.26
2022-11-20T19:02:40.879Z,8.10
2022-11-20T19:05:09.703Z,7.34
2022-11-20T19:07:36.534Z,7.48
2022-11-20T19:10:04.552Z,7.57
2022-11-20T19:12:31.352Z,7.54
2022-11-20T19:14:58.098Z,7.78
2022-11-20T19:17:24.650Z,7.75
2022-11-20T19:19:51.274Z,7.49
2022-11-20T19:22:18.230Z,7.64
2022-11-20T19:24:45.820Z,7.68
2022-11-20T19:27:12.365Z,7.91
2022-11-20T19:29:39.005Z,7.94
2022-11-20T19:32:05.833Z,7.45
2022-11-20T19:34:32.409Z,7.35
2022-11-20T19:37:00.689Z,7.53
2022-11-20T19:39:27.453Z,7.43
2022-11-20T19:41:54.239Z,7.70
2022-11-20T19:44:20.904Z,7.70
2022-11-20T19:46:47.513Z,7.79
2022-11-20T19:49:15.028Z,7.59
2022-11-20T19:51:47.740Z,7.73
2022-11-20T19:54:15.280Z,7.69
2022-11-20T19:56:44.873Z,7.87
2022-11-20T19:59:13.059Z,8.02
2022-11-20T20:01:40.020Z,7.87
2022-11-20T20:04:07.243Z,7.63
2022-11-20T20:06:35.873Z,7.62
2022-11-20T20:09:11.824Z,6.93
2022-11-20T20:11:39.099Z,6.91
2022-11-20T20:14:10.154Z,6.97
2022-11-20T20:16:36.795Z,6.92
2022-11-20T20:19:04.773Z,6.99
2022-11-20T20:21:33.375Z,6.70
2022-11-20T20:24:01.314Z,6.97
2022-11-20T20:26:30.173Z,6.88
2022-11-20T20:28:57.237Z,7.17
2022-11-20T20:31:25.767Z,7.27
2022-11-20T20:33:52.495Z,7.53
2022-11-20T20:36:20.266Z,7.29
2022-11-20T20:38:48.184Z,7.14
2022-11-20T20:41:14.928Z,7.25
2022-11-20T20:44:00.040Z,6.85
2022-11-20T20:46:26.656Z,6.90
2022-11-20T20:48:54.922Z,7.11
2022-11-20T20:51:22.230Z,6.73
2022-11-20T20:53:49.722Z,6.68
2022-11-20T20:56:17.316Z,6.79
2022-11-20T20:58:45.003Z,7.01
2022-11-20T21:01:13.960Z,7.05
2022-11-20T21:03:40.641Z,6.64
2022-11-20T21:06:08.283Z,6.81
2022-11-20T21:08:36.983Z,6.91
2022-11-20T21:11:12.047Z,6.52
2022-11-20T21:13:39.785Z,7.02
2022-11-20T21:16:06.736Z,6.72
2022-11-20T21:18:33.898Z,7.09
2022-11-20T21:21:19.590Z,7.18
2022-11-20T21:23:47.757Z,7.05
2022-11-20T21:26:14.401Z,6.93
2022-11-20T21:28:40.911Z,6.88
2022-11-20T21:31:09.610Z,7.23
2022-11-20T21:33:40.333Z,6.72
2022-11-20T21:36:08.254Z,6.53
2022-11-20T21:38:35.775Z,6.76
2022-11-20T21:41:03.941Z,7.00
2022-11-20T21:43:30.934Z,6.92
2022-11-20T21:46:01.961Z,6.74
2022-11-20T21:48:30.395Z,6.89
2022-11-20T21:51:05.496Z,6.93
2022-11-20T21:53:33.835Z,6.93
2022-11-20T21:56:00.464Z,7.03
2022-11-20T21:58:27.672Z,6.64
2022-11-20T22:00:55.011Z,7.17
2022-11-20T22:03:21.984Z,7.04
2022-11-20T22:05:56.468Z,7.38
2022-11-20T22:08:24.475Z,7.39
2022-11-20T22:11:00.800Z,7.16
2022-11-20T22:13:47.303Z,7.17
2022-11-20T22:16:14.503Z,6.78
2022-11-20T22:18:49.172Z,7.08
2022-11-20T22:21:17.888Z,7.12
2022-11-20T22:23:44.497Z,6.93
2022-11-20T22:26:13.892Z,7.15
2022-11-20T22:28:40.780Z,6.99
2022-11-20T22:31:09.580Z,7.34
2022-11-20T22:33:37.467Z,7.00
2022-11-20T22:36:09.491Z,6.90
2022-11-20T22:38:39.477Z,6.93
2022-11-20T22:41:08.515Z,6.83
2022-11-20T22:43:35.655Z,6.80
2022-11-20T22:46:21.048Z,6.86
2022-11-20T22:49:12.397Z,6.70
2022-11-20T22:51:40.562Z,6.81
2022-11-20T22:54:07.321Z,6.92
2022-11-20T22:56:34.989Z,7.02
2022-11-20T22:59:06.880Z,7.20
2022-11-20T23:01:36.686Z,7.16
2022-11-20T23:04:09.210Z,7.32
2022-11-20T23:06:35.854Z,6.99
2022-11-20T23:09:06.958Z,6.93
2022-11-20T23:11:33.934Z,6.96
2022-11-20T23:14:02.721Z,7.09
2022-11-20T23:16:30.878Z,6.85
2022-11-20T23:19:01.120Z,7.03
2022-11-20T23:21:27.801Z,7.18
2022-11-20T23:23:56.030Z,7.25
2022-11-20T23:26:24.348Z,7.47
2022-11-20T23:28:53.396Z,7.66
2022-11-20T23:31:20.352Z,7.91
2022-11-20T23:33:46.958Z,7.70
2022-11-20T23:36:14.127Z,7.46
2022-11-20T23:38:40.979Z,7.54
2022-11-20T23:41:07.717Z,7.54
2022-11-20T23:43:34.508Z,7.33
2022-11-20T23:46:02.079Z,7.31
2022-11-20T23:48:36.668Z,7.11
2022-11-20T23:51:03.448Z,7.31
2022-11-20T23:53:30.299Z,7.36
2022-11-20T23:55:59.557Z,7.05
2022-11-20T23:58:30.476Z,6.85
